Time;durP1;ratioP1;P1;durP2;ratioP2;P2;SDS_P1;SDS_P2;PMS_P1;PMS_P2;Temp;Humidity;BMP_temperature;BMP_pressure;BME280_temperature;BME280_humidity;BME280_pressure;Samples;Min_cycle;Max_cycle;Signal;HPM_P1;HPM_P2
2020/12/10 00:01:05;;;;;;;20.45;10.05;;;2.20;99.90;;;;;;1947086;73;21047;-83
2020/12/10 00:03:31;;;;;;;20.92;10.10;;;2.10;99.90;;;;;;1935772;73;21494;-84
2020/12/10 00:05:57;;;;;;;18.27;10.75;;;2.10;99.90;;;;;;1928023;73;21537;-83
2020/12/10 00:08:23;;;;;;;18.32;8.98;;;2.10;99.90;;;;;;1939861;73;21443;-83
2020/12/10 00:10:49;;;;;;;18.02;9.65;;;2.20;99.90;;;;;;1942736;73;21046;-83
2020/12/10 00:13:15;;;;;;;20.12;9.78;;;2.20;99.90;;;;;;1933741;72;21062;-83
2020/12/10 00:15:42;;;;;;;16.45;9.25;;;2.20;99.90;;;;;;1931356;73;21124;-85
2020/12/10 00:18:08;;;;;;;23.35;10.28;;;2.10;99.90;;;;;;1929658;73;21069;-83
2020/12/10 00:20:34;;;;;;;17.98;9.70;;;2.10;99.90;;;;;;1927270;73;21032;-82
2020/12/10 00:23:00;;;;;;;17.02;9.95;;;2.20;99.90;;;;;;1936359;72;21143;-84
2020/12/10 00:25:26;;;;;;;18.77;10.65;;;2.20;99.90;;;;;;1933540;73;21104;-83
2020/12/10 00:27:52;;;;;;;16.85;9.98;;;2.10;99.90;;;;;;1938327;73;21070;-83
2020/12/10 00:30:18;;;;;;;15.53;10.28;;;2.10;99.90;;;;;;1934237;72;21059;-83
2020/12/10 00:32:44;;;;;;;17.90;10.23;;;2.10;99.90;;;;;;1938552;73;21046;-83
2020/12/10 00:35:10;;;;;;;20.45;10.58;;;2.10;99.90;;;;;;1941062;73;21058;-84
2020/12/10 00:37:37;;;;;;;22.95;10.53;;;2.20;99.90;;;;;;1931237;73;21129;-83
2020/12/10 00:40:03;;;;;;;27.87;10.28;;;2.20;99.90;;;;;;1931899;72;21132;-82
2020/12/10 00:42:29;;;;;;;20.62;11.33;;;2.10;99.90;;;;;;1931860;73;21144;-85
2020/12/10 00:44:55;;;;;;;21.07;11.03;;;2.10;99.90;;;;;;1929987;73;21123;-83
2020/12/10 00:47:21;;;;;;;19.52;10.80;;;2.10;99.90;;;;;;1939598;72;21078;-84
2020/12/10 00:49:47;;;;;;;21.85;10.60;;;2.10;99.90;;;;;;1936784;73;21148;-83
2020/12/10 00:52:13;;;;;;;23.27;10.32;;;2.10;99.90;;;;;;1936678;73;21473;-83
2020/12/10 00:54:39;;;;;;;18.17;10.05;;;2.10;99.90;;;;;;1931078;73;21459;-83
2020/12/10 00:57:06;;;;;;;18.82;10.40;;;2.10;99.90;;;;;;1941720;73;21539;-83
2020/12/10 00:59:32;;;;;;;17.67;9.83;;;2.20;99.90;;;;;;1924344;72;21536;-83
2020/12/10 01:01:58;;;;;;;17.70;10.23;;;2.10;99.90;;;;;;1935925;72;21180;-83
2020/12/10 01:04:24;;;;;;;23.07;11.28;;;2.20;99.90;;;;;;1936177;73;21136;-83
2020/12/10 01:06:50;;;;;;;25.70;11.08;;;2.10;99.90;;;;;;1950274;73;21043;-83
2020/12/10 01:09:16;;;;;;;21.77;11.40;;;2.00;99.90;;;;;;1940100;72;21124;-84
2020/12/10 01:11:42;;;;;;;21.65;11.48;;;1.90;99.90;;;;;;1936574;73;21054;-83
2020/12/10 01:14:08;;;;;;;27.35;13.10;;;1.80;99.90;;;;;;1930672;73;21136;-82
2020/12/10 01:16:35;;;;;;;21.25;11.38;;;1.70;99.90;;;;;;1925877;73;21058;-83
2020/12/10 01:19:01;;;;;;;25.05;10.78;;;1.70;99.90;;;;;;1924747;73;21077;-83
2020/12/10 01:21:27;;;;;;;17.62;10.93;;;1.60;99.90;;;;;;1942780;73;21497;-85
2020/12/10 01:23:53;;;;;;;28.45;12.40;;;1.70;99.90;;;;;;1935260;73;21433;-83
2020/12/10 01:26:19;;;;;;;25.52;12.75;;;1.70;99.90;;;;;;1930628;72;21543;-84
2020/12/10 01:28:45;;;;;;;24.20;12.90;;;1.70;99.90;;;;;;1920453;72;21493;-84
2020/12/10 01:31:14;;;;;;;20.82;10.98;;;1.70;99.90;;;;;;1936896;72;21258;-83
2020/12/10 01:33:39;;;;;;;35.52;12.30;;;1.60;99.90;;;;;;1928960;72;21106;-84
2020/12/10 01:36:05;;;;;;;27.25;12.60;;;1.70;99.90;;;;;;1922563;73;21485;-83
2020/12/10 01:38:32;;;;;;;24.35;11.88;;;1.60;99.90;;;;;;1930680;73;21459;-84
2020/12/10 01:40:58;;;;;;;22.95;12.03;;;1.70;99.90;;;;;;1931663;73;21517;-83
2020/12/10 01:43:24;;;;;;;18.65;10.75;;;1.80;99.90;;;;;;1932489;72;21434;-83
2020/12/10 01:45:50;;;;;;;25.35;10.75;;;1.70;99.90;;;;;;1943388;72;21136;-83
2020/12/10 01:48:16;;;;;;;22.37;9.98;;;1.80;99.90;;;;;;1934324;73;21070;-84
2020/12/10 01:50:42;;;;;;;17.85;9.40;;;1.80;99.90;;;;;;1942119;72;21136;-84
2020/12/10 01:53:08;;;;;;;21.40;11.57;;;1.80;99.90;;;;;;1936121;73;21067;-83
2020/12/10 01:55:34;;;;;;;19.57;9.83;;;1.80;99.90;;;;;;1916539;73;21031;-82
2020/12/10 01:58:01;;;;;;;23.83;11.65;;;1.90;99.90;;;;;;1917264;73;21127;-84
2020/12/10 02:00:27;;;;;;;22.55;10.48;;;1.80;99.90;;;;;;1935962;72;21152;-82
2020/12/10 02:02:53;;;;;;;20.40;9.80;;;1.80;99.90;;;;;;1931701;73;21152;-84
2020/12/10 02:05:19;;;;;;;15.65;9.43;;;1.90;99.90;;;;;;1922171;73;21068;-83
2020/12/10 02:07:45;;;;;;;24.05;10.15;;;1.90;99.90;;;;;;1927963;72;21510;-83
2020/12/10 02:10:12;;;;;;;18.23;9.23;;;2.00;99.90;;;;;;1934725;73;21466;-83
2020/12/10 02:12:39;;;;;;;18.57;10.10;;;2.00;99.90;;;;;;1939806;73;21470;-83
2020/12/10 02:15:05;;;;;;;19.05;9.68;;;1.90;99.90;;;;;;1928187;73;21196;-85
2020/12/10 02:17:31;;;;;;;26.85;9.68;;;1.80;99.90;;;;;;1920765;73;21067;-84
2020/12/10 02:19:58;;;;;;;17.75;9.30;;;1.90;99.90;;;;;;1935239;72;21047;-83
2020/12/10 02:22:25;;;;;;;17.77;9.20;;;1.90;99.90;;;;;;1933009;72;21034;-84
2020/12/10 02:24:51;;;;;;;21.17;9.68;;;1.90;99.90;;;;;;1937499;73;21109;-83
2020/12/10 02:27:17;;;;;;;18.50;8.33;;;2.00;99.90;;;;;;1920206;73;21065;-82
2020/12/10 02:29:43;;;;;;;19.60;10.63;;;2.00;99.90;;;;;;1943706;73;21067;-83
2020/12/10 02:32:09;;;;;;;19.30;9.08;;;2.00;99.90;;;;;;1928465;72;21217;-83
2020/12/10 02:34:35;;;;;;;18.23;8.30;;;2.00;99.90;;;;;;1928963;73;21439;-83
2020/12/10 02:37:01;;;;;;;17.17;9.40;;;1.90;99.90;;;;;;1909896;73;21454;-83
2020/12/10 02:39:27;;;;;;;23.05;10.20;;;1.90;99.90;;;;;;1937684;73;21674;-83
2020/12/10 02:41:53;;;;;;;18.07;8.63;;;1.90;99.90;;;;;;1936124;72;21139;-82
2020/12/10 02:44:20;;;;;;;21.70;10.25;;;1.80;99.90;;;;;;1931343;73;21066;-82
2020/12/10 02:46:46;;;;;;;19.95;9.78;;;1.80;99.90;;;;;;1931569;73;21039;-82
2020/12/10 02:49:12;;;;;;;19.55;9.33;;;1.80;99.90;;;;;;1931573;72;21058;-84
2020/12/10 02:51:38;;;;;;;21.00;8.98;;;1.80;99.90;;;;;;1933150;73;21058;-81
2020/12/10 02:54:04;;;;;;;19.12;9.78;;;1.80;99.90;;;;;;1945063;73;21112;-82
2020/12/10 02:56:30;;;;;;;15.45;9.28;;;1.80;99.90;;;;;;1937609;73;21070;-84
2020/12/10 02:58:56;;;;;;;17.95;9.73;;;1.70;99.90;;;;;;1929105;72;21136;-82
2020/12/10 03:01:22;;;;;;;21.48;8.68;;;1.70;99.90;;;;;;1935860;72;21051;-82
2020/12/10 03:03:49;;;;;;;24.87;10.08;;;1.80;99.90;;;;;;1929071;72;21135;-82
2020/12/10 03:06:15;;;;;;;18.37;10.30;;;1.80;99.90;;;;;;1933925;72;21062;-82
2020/12/10 03:08:41;;;;;;;17.95;10.03;;;1.80;99.90;;;;;;1933044;73;21066;-83
2020/12/10 03:11:07;;;;;;;22.52;10.13;;;1.70;99.90;;;;;;1928644;73;21093;-83
2020/12/10 03:13:33;;;;;;;15.10;8.95;;;1.70;99.90;;;;;;1919573;73;21119;-83
2020/12/10 03:15:59;;;;;;;22.98;9.35;;;1.80;99.90;;;;;;1929998;72;21043;-83
2020/12/10 03:18:25;;;;;;;16.25;8.43;;;2.00;99.90;;;;;;1927809;73;21054;-82
2020/12/10 03:20:52;;;;;;;18.30;9.10;;;2.00;99.90;;;;;;1933920;73;21050;-83
2020/12/10 03:23:18;;;;;;;21.60;10.55;;;1.90;99.90;;;;;;1930317;73;21113;-82
2020/12/10 03:25:44;;;;;;;17.45;9.40;;;1.90;99.90;;;;;;1940125;72;21066;-83
2020/12/10 03:28:10;;;;;;;19.45;9.23;;;1.90;99.90;;;;;;1935650;72;21125;-84
2020/12/10 03:30:36;;;;;;;24.07;9.88;;;1.90;99.90;;;;;;1943559;73;21034;-84
2020/12/10 03:33:02;;;;;;;16.07;9.35;;;1.90;99.90;;;;;;1941445;73;21139;-84
2020/12/10 03:35:28;;;;;;;18.23;9.18;;;1.80;99.90;;;;;;1930493;72;21062;-85
2020/12/10 03:37:54;;;;;;;18.12;9.58;;;1.80;99.90;;;;;;1940586;73;21074;-84
2020/12/10 03:40:21;;;;;;;17.85;10.10;;;1.80;99.90;;;;;;1932989;73;21077;-83
2020/12/10 03:42:47;;;;;;;24.30;10.43;;;1.80;99.90;;;;;;1924396;73;21438;-83
2020/12/10 03:45:15;;;;;;;14.98;9.30;;;1.80;99.90;;;;;;1931116;73;21475;-83
2020/12/10 03:47:42;;;;;;;15.95;8.80;;;1.80;99.90;;;;;;1916563;73;21075;-83
2020/12/10 03:50:08;;;;;;;15.98;9.38;;;1.70;99.90;;;;;;1936816;73;21246;-84
2020/12/10 03:52:34;;;;;;;20.55;8.75;;;1.80;99.90;;;;;;1929249;72;21066;-84
2020/12/10 03:55:02;;;;;;;17.73;8.68;;;1.80;99.90;;;;;;1934729;73;21122;-82
2020/12/10 03:57:28;;;;;;;17.17;9.25;;;1.80;99.90;;;;;;1938142;73;21062;-83
2020/12/10 03:59:54;;;;;;;25.08;9.18;;;1.80;99.90;;;;;;1925955;73;21061;-84
2020/12/10 04:02:20;;;;;;;19.77;9.75;;;1.70;99.90;;;;;;1922168;73;21070;-84
2020/12/10 04:04:46;;;;;;;17.82;9.58;;;1.70;99.90;;;;;;1925844;72;21135;-84
2020/12/10 04:07:12;;;;;;;23.55;9.68;;;1.60;99.90;;;;;;1941237;73;21066;-84
2020/12/10 04:09:39;;;;;;;22.67;10.68;;;1.60;99.90;;;;;;1928796;72;21136;-83
2020/12/10 04:12:05;;;;;;;20.40;10.23;;;1.60;99.90;;;;;;1928928;73;21039;-83
2020/12/10 04:14:31;;;;;;;18.90;10.50;;;1.60;99.90;;;;;;1952376;72;21069;-84
2020/12/10 04:16:57;;;;;;;20.37;9.90;;;1.70;99.90;;;;;;1930823;72;21442;-83
2020/12/10 04:19:24;;;;;;;17.82;10.40;;;1.80;99.90;;;;;;1934334;73;21078;-84
2020/12/10 04:21:50;;;;;;;15.38;8.65;;;1.80;99.90;;;;;;1932366;73;21062;-84
2020/12/10 04:24:16;;;;;;;19.70;9.60;;;1.80;99.90;;;;;;1934277;73;21066;-83
2020/12/10 04:26:42;;;;;;;23.05;10.45;;;1.90;99.90;;;;;;1944241;73;21164;-83
2020/12/10 04:29:13;;;;;;;17.77;9.33;;;1.90;99.90;;;;;;1930237;73;21451;-84
2020/12/10 04:31:36;;;;;;;19.27;9.48;;;1.90;99.90;;;;;;1928295;73;21047;-83
2020/12/10 04:34:03;;;;;;;16.87;8.88;;;2.00;99.90;;;;;;1927964;73;21051;-83
2020/12/10 04:36:29;;;;;;;19.45;9.33;;;1.90;99.90;;;;;;1933613;73;21062;-84
2020/12/10 04:38:55;;;;;;;25.02;10.10;;;1.80;99.90;;;;;;1936794;72;21135;-83
2020/12/10 04:41:21;;;;;;;22.50;9.35;;;1.70;99.90;;;;;;1925817;72;21059;-84
2020/12/10 04:43:47;;;;;;;18.57;9.35;;;1.70;99.90;;;;;;1940101;72;21559;-83
2020/12/10 04:46:14;;;;;;;20.12;10.35;;;1.70;99.90;;;;;;1942200;73;21384;-84
2020/12/10 04:48:40;;;;;;;20.75;10.13;;;1.80;99.90;;;;;;1931290;72;21035;-82
2020/12/10 04:51:07;;;;;;;23.62;10.23;;;1.80;99.90;;;;;;1934534;72;21062;-83
2020/12/10 04:53:36;;;;;;;21.75;8.58;;;1.70;99.90;;;;;;1937701;73;21497;-83
2020/12/10 04:56:03;;;;;;;26.12;9.68;;;1.70;99.90;;;;;;1928039;73;21103;-83
2020/12/10 04:58:29;;;;;;;21.45;9.78;;;1.80;99.90;;;;;;1928594;73;21469;-83
2020/12/10 05:00:58;;;;;;;18.50;9.85;;;1.80;99.90;;;;;;1949951;72;21101;-83
2020/12/10 05:03:23;;;;;;;18.77;9.55;;;1.80;99.90;;;;;;1934667;73;21095;-84
2020/12/10 05:05:49;;;;;;;22.85;9.93;;;1.80;99.90;;;;;;1927602;73;21548;-84
2020/12/10 05:08:15;;;;;;;24.85;9.38;;;1.70;99.90;;;;;;1929682;73;21545;-83
2020/12/10 05:10:42;;;;;;;19.98;10.20;;;1.80;99.90;;;;;;1927907;72;21054;-82
2020/12/10 05:13:08;;;;;;;26.23;10.48;;;1.80;99.90;;;;;;1936690;73;21371;-82
2020/12/10 05:15:34;;;;;;;20.08;9.75;;;1.80;99.90;;;;;;1929676;73;21077;-83
2020/12/10 05:18:00;;;;;;;23.35;10.28;;;1.80;99.90;;;;;;1938652;73;21184;-83
2020/12/10 05:20:26;;;;;;;25.55;11.68;;;1.70;99.90;;;;;;1924640;72;21128;-82
2020/12/10 05:22:52;;;;;;;24.12;10.20;;;1.70;99.90;;;;;;1925389;73;21071;-82
2020/12/10 05:25:18;;;;;;;23.87;11.05;;;1.60;99.90;;;;;;1936595;73;21058;-82
2020/12/10 05:27:45;;;;;;;25.37;11.05;;;1.60;99.90;;;;;;1924320;73;21043;-81
2020/12/10 05:30:11;;;;;;;20.45;10.45;;;1.60;99.90;;;;;;1922883;73;21170;-82
2020/12/10 05:32:37;;;;;;;24.43;11.20;;;1.70;99.90;;;;;;1945270;73;21135;-83
2020/12/10 05:35:03;;;;;;;19.82;10.55;;;1.80;99.90;;;;;;1929057;73;21340;-83
2020/12/10 05:37:29;;;;;;;21.05;11.50;;;1.80;99.90;;;;;;1935986;73;21136;-82
2020/12/10 05:39:55;;;;;;;24.90;10.18;;;1.80;99.90;;;;;;1921064;73;21213;-83
2020/12/10 05:42:22;;;;;;;22.67;9.95;;;1.80;99.90;;;;;;1941353;73;21117;-82
2020/12/10 05:44:48;;;;;;;20.68;9.50;;;1.80;99.90;;;;;;1933215;73;21149;-82
2020/12/10 05:47:14;;;;;;;21.02;9.23;;;1.80;99.90;;;;;;1905299;73;21116;-84
2020/12/10 05:49:40;;;;;;;20.97;10.75;;;1.80;99.90;;;;;;1928561;73;21145;-82
2020/12/10 05:52:06;;;;;;;16.12;9.30;;;1.80;99.90;;;;;;1938365;72;21058;-83
2020/12/10 05:54:34;;;;;;;23.35;10.80;;;1.80;99.90;;;;;;1924968;72;21043;-83
2020/12/10 05:57:00;;;;;;;24.40;9.95;;;1.80;99.90;;;;;;1932735;73;21062;-79
2020/12/10 05:59:26;;;;;;;22.82;10.38;;;1.70;99.90;;;;;;1933393;72;21131;-74
2020/12/10 06:01:52;;;;;;;20.43;9.88;;;1.80;99.90;;;;;;1929881;73;21062;-79
2020/12/10 06:04:18;;;;;;;28.07;10.95;;;1.70;99.90;;;;;;1938113;73;21117;-79
2020/12/10 06:06:45;;;;;;;19.45;10.45;;;1.60;99.90;;;;;;1925918;73;21467;-79
2020/12/10 06:09:11;;;;;;;22.62;9.95;;;1.70;99.90;;;;;;1928680;73;21441;-79
2020/12/10 06:11:38;;;;;;;20.57;9.73;;;1.80;99.90;;;;;;1932887;73;21458;-79
2020/12/10 06:14:04;;;;;;;14.10;8.65;;;1.80;99.90;;;;;;1935685;73;21078;-74
2020/12/10 06:16:30;;;;;;;22.80;10.53;;;1.90;99.90;;;;;;1939479;72;21473;-77
2020/12/10 06:19:07;;;;;;;23.07;9.68;;;1.70;99.90;;;;;;1933631;72;21451;-78
2020/12/10 06:21:30;;;;;;;18.57;9.48;;;1.80;99.90;;;;;;1941894;72;21373;-78
2020/12/10 06:23:56;;;;;;;12.28;8.00;;;1.80;99.90;;;;;;1937984;72;21039;-78
2020/12/10 06:26:22;;;;;;;23.30;9.90;;;1.90;99.90;;;;;;1936373;72;21222;-77
2020/12/10 06:28:48;;;;;;;18.60;10.13;;;2.00;99.90;;;;;;1927874;73;21163;-76
2020/12/10 06:31:14;;;;;;;21.35;10.18;;;1.90;99.90;;;;;;1940215;72;21069;-77
2020/12/10 06:33:41;;;;;;;14.70;9.43;;;2.10;99.90;;;;;;1937950;72;21036;-76
2020/12/10 06:36:07;;;;;;;20.15;10.78;;;2.00;99.90;;;;;;1925448;72;21140;-76
2020/12/10 06:38:33;;;;;;;21.37;9.03;;;1.90;99.90;;;;;;1928014;73;21062;-76
2020/12/10 06:40:59;;;;;;;24.32;10.48;;;1.90;99.90;;;;;;1933555;72;21059;-77
2020/12/10 06:43:25;;;;;;;27.25;10.63;;;1.90;99.90;;;;;;1926261;73;21039;-76
2020/12/10 06:45:51;;;;;;;19.12;9.38;;;1.90;99.90;;;;;;1922688;73;21066;-76
2020/12/10 06:48:17;;;;;;;17.90;9.60;;;1.80;99.90;;;;;;1938987;72;21127;-75
2020/12/10 06:50:43;;;;;;;22.70;11.88;;;1.80;99.90;;;;;;1942266;72;21070;-77
2020/12/10 06:53:10;;;;;;;20.43;9.53;;;1.70;99.90;;;;;;1940787;72;21144;-76
2020/12/10 06:55:36;;;;;;;27.87;11.18;;;1.80;99.90;;;;;;1932717;73;21047;-78
2020/12/10 06:58:12;;;;;;;25.02;9.93;;;1.70;99.90;;;;;;1940448;72;21147;-77
2020/12/10 07:00:30;;;;;;;30.72;10.65;;;1.80;99.90;;;;;;1927653;73;21070;-76
2020/12/10 07:02:56;;;;;;;21.48;10.13;;;1.80;99.90;;;;;;1921363;73;21121;-80
2020/12/10 07:05:22;;;;;;;22.70;9.50;;;1.80;99.90;;;;;;1920545;73;21071;-79
2020/12/10 07:07:48;;;;;;;19.40;9.80;;;1.80;99.90;;;;;;1930574;72;21141;-77
2020/12/10 07:10:14;;;;;;;25.12;10.45;;;1.80;99.90;;;;;;1937419;72;21120;-77
2020/12/10 07:12:41;;;;;;;22.15;9.70;;;1.90;99.90;;;;;;1919335;73;21073;-77
2020/12/10 07:15:07;;;;;;;15.10;8.80;;;1.80;99.90;;;;;;1935265;73;21124;-77
2020/12/10 07:17:33;;;;;;;15.93;8.68;;;1.80;99.90;;;;;;1936340;73;21070;-77
2020/12/10 07:19:59;;;;;;;17.98;9.70;;;1.80;99.90;;;;;;1933129;72;21140;-77
2020/12/10 07:22:25;;;;;;;20.82;10.43;;;1.80;99.90;;;;;;1942712;72;21067;-74
2020/12/10 07:24:56;;;;;;;19.48;9.95;;;1.70;99.90;;;;;;1926649;73;21106;-80
2020/12/10 07:27:19;;;;;;;19.80;9.10;;;1.70;99.90;;;;;;1937911;72;21069;-77
2020/12/10 07:29:45;;;;;;;19.87;9.25;;;1.80;99.90;;;;;;1923602;72;21066;-78
2020/12/10 07:32:11;;;;;;;26.60;9.20;;;1.80;99.90;;;;;;1929115;72;21066;-78
2020/12/10 07:34:38;;;;;;;22.62;9.28;;;1.90;99.90;;;;;;1930749;72;21070;-78
2020/12/10 07:37:04;;;;;;;22.32;10.25;;;1.80;99.90;;;;;;1937365;73;21038;-79
2020/12/10 07:39:30;;;;;;;18.10;9.48;;;1.90;99.90;;;;;;1932901;73;21188;-77
2020/12/10 07:41:56;;;;;;;19.92;9.28;;;1.80;99.90;;;;;;1939088;73;21500;-77
2020/12/10 07:44:22;;;;;;;13.53;8.13;;;1.80;99.90;;;;;;1927254;73;21127;-76
2020/12/10 07:46:48;;;;;;;22.70;10.43;;;1.90;99.90;;;;;;1927655;73;21131;-75
2020/12/10 07:49:15;;;;;;;16.75;9.70;;;1.80;99.90;;;;;;1936002;72;21058;-75
2020/12/10 07:51:41;;;;;;;18.87;9.40;;;1.80;99.90;;;;;;1936312;73;21063;-75
2020/12/10 07:54:07;;;;;;;26.42;9.30;;;1.90;99.90;;;;;;1939803;73;21039;-73
2020/12/10 07:56:33;;;;;;;15.60;8.48;;;2.00;99.90;;;;;;1940659;73;21131;-76
2020/12/10 07:58:59;;;;;;;15.72;8.45;;;2.10;99.90;;;;;;1934133;73;21141;-75
2020/12/10 08:01:27;;;;;;;16.05;8.65;;;2.20;99.90;;;;;;1938131;73;21055;-77
2020/12/10 08:03:53;;;;;;;26.15;9.08;;;2.20;99.90;;;;;;1933801;72;21136;-74
2020/12/10 08:06:19;;;;;;;20.23;8.73;;;2.20;99.90;;;;;;1950434;73;21093;-75
2020/12/10 08:08:48;;;;;;;17.12;8.80;;;2.30;99.90;;;;;;1923573;73;21061;-73
2020/12/10 08:11:14;;;;;;;15.63;9.18;;;2.30;99.90;;;;;;1938190;73;21039;-75
2020/12/10 08:13:40;;;;;;;22.48;8.10;;;2.10;99.90;;;;;;1938537;72;21459;-75
2020/12/10 08:16:07;;;;;;;20.45;8.63;;;1.90;99.90;;;;;;1933488;73;21931;-73
2020/12/10 08:18:33;;;;;;;12.50;7.70;;;2.00;99.90;;;;;;1922961;73;21135;-73
2020/12/10 08:21:04;;;;;;;16.30;8.03;;;2.20;99.90;;;;;;1933154;73;21144;-73
2020/12/10 08:23:27;;;;;;;21.73;8.98;;;2.20;99.90;;;;;;1939609;73;21144;-74
2020/12/10 08:25:53;;;;;;;15.93;9.03;;;2.30;99.90;;;;;;1934299;73;21209;-72
2020/12/10 08:28:19;;;;;;;17.75;8.03;;;2.10;99.90;;;;;;1943473;73;21153;-79
2020/12/10 08:30:45;;;;;;;20.17;9.73;;;2.10;99.90;;;;;;1931630;73;21061;-77
2020/12/10 08:33:12;;;;;;;17.70;8.55;;;2.20;99.90;;;;;;1925021;73;21127;-76
2020/12/10 08:35:38;;;;;;;16.75;8.95;;;2.20;99.90;;;;;;1946937;72;21469;-76
2020/12/10 08:38:05;;;;;;;18.23;8.58;;;2.30;99.90;;;;;;1939031;72;21132;-75
2020/12/10 08:40:31;;;;;;;19.62;9.85;;;2.40;99.90;;;;;;1944676;72;21132;-74
2020/12/10 08:42:57;;;;;;;17.00;8.43;;;2.40;99.90;;;;;;1923085;73;21070;-73
2020/12/10 08:45:24;;;;;;;17.17;8.28;;;2.30;99.90;;;;;;1939871;73;21043;-73
2020/12/10 08:47:50;;;;;;;13.18;7.65;;;2.40;99.90;;;;;;1933339;72;21062;-75
2020/12/10 08:50:26;;;;;;;18.30;8.78;;;2.40;99.90;;;;;;1927057;73;21073;-74
2020/12/10 08:52:52;;;;;;;15.90;7.85;;;2.50;99.90;;;;;;1935223;73;21066;-78
2020/12/10 08:55:19;;;;;;;13.62;7.55;;;2.40;99.90;;;;;;1924775;73;21040;-73
2020/12/10 08:57:45;;;;;;;17.98;8.38;;;2.50;99.90;;;;;;1934833;73;21048;-74
2020/12/10 09:00:11;;;;;;;19.48;9.28;;;2.40;99.90;;;;;;1952508;72;21112;-74
2020/12/10 09:02:37;;;;;;;18.30;9.08;;;2.20;99.90;;;;;;1942737;73;21136;-76
2020/12/10 09:05:03;;;;;;;18.07;8.13;;;2.20;99.90;;;;;;1946573;72;21489;-75
2020/12/10 09:07:29;;;;;;;17.35;8.08;;;2.20;99.90;;;;;;1940841;72;21561;-76
2020/12/10 09:09:55;;;;;;;13.40;8.15;;;2.30;99.90;;;;;;1953007;72;21527;-76
2020/12/10 09:12:21;;;;;;;13.13;6.92;;;2.40;99.90;;;;;;1928159;73;21472;-77
2020/12/10 09:14:48;;;;;;;21.42;7.50;;;2.60;99.90;;;;;;1939316;72;21144;-76
2020/12/10 09:17:14;;;;;;;16.30;8.00;;;2.60;99.90;;;;;;1938034;72;21054;-77
2020/12/10 09:19:40;;;;;;;18.85;8.20;;;2.80;99.90;;;;;;1934465;73;21066;-76
2020/12/10 09:22:06;;;;;;;12.40;7.87;;;2.80;99.90;;;;;;1948194;73;21063;-77
2020/12/10 09:24:32;;;;;;;11.22;6.70;;;3.00;99.90;;;;;;1945847;73;21107;-77
2020/12/10 09:26:58;;;;;;;17.05;7.47;;;3.10;99.90;;;;;;1963872;72;21104;-79
2020/12/10 09:29:24;;;;;;;10.75;6.75;;;3.10;99.90;;;;;;1924318;73;21133;-85
2020/12/10 09:31:50;;;;;;;12.65;6.50;;;3.20;99.90;;;;;;1948291;73;21060;-82
2020/12/10 09:34:17;;;;;;;19.20;7.33;;;3.10;99.90;;;;;;1952079;72;21038;-75
2020/12/10 09:36:43;;;;;;;15.40;7.08;;;3.00;99.90;;;;;;1953208;72;21110;-75
2020/12/10 09:39:09;;;;;;;12.58;7.05;;;2.80;99.90;;;;;;1939885;73;21065;-76
2020/12/10 09:41:35;;;;;;;18.10;7.75;;;3.00;99.90;;;;;;1949607;72;21064;-77
2020/12/10 09:44:02;;;;;;;17.52;8.25;;;3.00;99.90;;;;;;1949747;72;21133;-81
2020/12/10 09:46:28;;;;;;;20.85;10.30;;;3.00;99.90;;;;;;1953343;72;21045;-83
2020/12/10 09:48:54;;;;;;;15.40;8.68;;;3.10;99.90;;;;;;1951522;72;21193;-81
2020/12/10 09:51:21;;;;;;;20.45;9.53;;;3.10;99.90;;;;;;1945924;72;21122;-83
2020/12/10 09:53:54;;;;;;;17.07;8.45;;;3.10;99.90;;;;;;1941394;72;21165;-83
2020/12/10 09:58:46;;;;;;;16.15;8.65;;;3.20;99.90;;;;;;1949017;71;21072;-84
2020/12/10 10:01:12;;;;;;;20.80;10.10;;;3.20;99.90;;;;;;1946069;72;21072;-84
2020/12/10 10:03:38;;;;;;;17.50;9.35;;;3.10;99.90;;;;;;1946923;73;21071;-79
2020/12/10 10:06:05;;;;;;;21.95;9.65;;;2.80;99.90;;;;;;1949962;72;21064;-83
2020/12/10 10:08:33;;;;;;;14.98;8.30;;;2.90;99.90;;;;;;1941199;73;21107;-75
2020/12/10 10:10:59;;;;;;;17.65;9.30;;;2.80;99.90;;;;;;1948513;73;21075;-78
2020/12/10 10:13:25;;;;;;;17.95;10.25;;;2.80;99.90;;;;;;1946655;72;21194;-76
2020/12/10 10:15:51;;;;;;;16.80;9.65;;;2.80;99.90;;;;;;1950844;73;21108;-78
2020/12/10 10:18:17;;;;;;;16.35;8.18;;;2.80;99.90;;;;;;1942638;72;21064;-77
2020/12/10 10:20:44;;;;;;;19.05;9.53;;;2.90;99.90;;;;;;1945981;73;21465;-80
2020/12/10 10:23:10;;;;;;;17.70;9.93;;;2.70;99.90;;;;;;1920265;73;21068;-83
2020/12/10 10:25:36;;;;;;;23.10;10.72;;;2.70;99.90;;;;;;1945751;72;21197;-81
2020/12/10 10:28:02;;;;;;;17.40;9.78;;;2.70;99.90;;;;;;1947447;72;21072;-82
2020/12/10 10:30:28;;;;;;;25.37;10.08;;;2.90;99.90;;;;;;1934079;73;21115;-81
2020/12/10 10:32:54;;;;;;;19.10;9.63;;;2.90;99.90;;;;;;1952062;73;21433;-81
2020/12/10 10:35:23;;;;;;;20.12;8.88;;;2.90;99.90;;;;;;1949182;72;21505;-82
2020/12/10 10:37:48;;;;;;;18.60;9.63;;;2.90;99.90;;;;;;1938616;73;21148;-82
2020/12/10 10:40:14;;;;;;;19.65;10.55;;;2.90;99.90;;;;;;1942658;72;21088;-81
2020/12/10 10:42:41;;;;;;;16.27;9.28;;;3.00;99.90;;;;;;1949741;73;21064;-81
2020/12/10 10:45:09;;;;;;;18.77;9.20;;;3.00;99.90;;;;;;1944251;72;21180;-80
2020/12/10 10:47:36;;;;;;;19.17;9.45;;;2.90;99.90;;;;;;1943702;72;21064;-80
2020/12/10 10:50:03;;;;;;;17.40;8.95;;;3.00;99.90;;;;;;1945697;72;21129;-81
2020/12/10 10:52:30;;;;;;;18.92;9.85;;;2.90;99.90;;;;;;1949123;73;21607;-81
2020/12/10 10:54:56;;;;;;;19.35;9.65;;;2.70;99.90;;;;;;1941402;73;21125;-80
2020/12/10 10:57:22;;;;;;;14.47;7.65;;;2.80;99.90;;;;;;1948029;72;21151;-82
2020/12/10 10:59:50;;;;;;;24.30;8.78;;;2.80;99.90;;;;;;1946067;72;21037;-81
2020/12/10 11:02:16;;;;;;;19.98;9.05;;;3.00;99.90;;;;;;1945714;72;21071;-81
2020/12/10 11:04:42;;;;;;;20.80;9.08;;;3.20;99.90;;;;;;1947885;72;21118;-81
2020/12/10 11:07:09;;;;;;;20.77;8.95;;;3.30;99.90;;;;;;1947769;72;21038;-78
2020/12/10 11:09:35;;;;;;;16.20;8.50;;;3.10;99.90;;;;;;1941231;72;21076;-80
2020/12/10 11:12:01;;;;;;;21.15;9.25;;;3.00;99.90;;;;;;1945843;73;21079;-78
2020/12/10 11:14:30;;;;;;;22.75;8.55;;;3.20;99.90;;;;;;1952395;73;21072;-82
2020/12/10 11:16:58;;;;;;;15.03;7.85;;;3.20;99.90;;;;;;1944773;73;21085;-76
2020/12/10 11:19:26;;;;;;;20.15;8.33;;;3.10;99.90;;;;;;1943492;73;21041;-81
2020/12/10 11:21:52;;;;;;;17.42;7.80;;;3.10;99.90;;;;;;1947859;72;21553;-80
2020/12/10 11:24:19;;;;;;;12.82;7.47;;;3.10;99.90;;;;;;1943811;72;21484;-81
2020/12/10 11:26:46;;;;;;;16.23;7.67;;;3.20;99.90;;;;;;1948741;73;21045;-80
2020/12/10 11:29:12;;;;;;;18.42;7.80;;;3.30;99.90;;;;;;1949098;72;21053;-83
2020/12/10 11:31:38;;;;;;;23.75;8.43;;;3.10;99.90;;;;;;1944371;73;21070;-77
2020/12/10 11:34:04;;;;;;;14.60;7.30;;;3.00;99.90;;;;;;1945816;73;21072;-79
2020/12/10 11:36:30;;;;;;;15.85;7.70;;;2.90;99.90;;;;;;1945908;73;21084;-77
2020/12/10 11:38:56;;;;;;;16.57;7.53;;;2.90;99.90;;;;;;1944400;72;21072;-81
2020/12/10 11:41:23;;;;;;;16.10;7.42;;;3.10;99.90;;;;;;1947509;73;21045;-79
2020/12/10 11:43:49;;;;;;;15.80;7.12;;;3.30;99.90;;;;;;1949258;72;21484;-78
2020/12/10 11:46:15;;;;;;;12.80;6.78;;;3.40;99.90;;;;;;1946556;73;21472;-79
2020/12/10 11:48:41;;;;;;;10.93;6.37;;;3.40;99.90;;;;;;1948459;73;21162;-76
2020/12/10 11:51:07;;;;;;;11.95;7.15;;;3.40;99.90;;;;;;1947448;73;21044;-78
2020/12/10 11:53:34;;;;;;;12.60;6.62;;;3.40;99.90;;;;;;1944826;73;21072;-79
2020/12/10 11:56:00;;;;;;;14.85;6.85;;;3.60;99.90;;;;;;1951498;72;21503;-78
2020/12/10 11:58:26;;;;;;;12.50;6.70;;;3.50;99.90;;;;;;1946811;72;21072;-80
2020/12/10 12:00:53;;;;;;;13.20;6.90;;;3.60;99.90;;;;;;1950657;72;21060;-81
2020/12/10 12:03:19;;;;;;;15.08;7.22;;;3.70;99.90;;;;;;1932878;72;21047;-83
2020/12/10 12:05:47;;;;;;;12.68;6.58;;;3.50;99.90;;;;;;1945985;73;21043;-80
2020/12/10 12:08:13;;;;;;;13.10;5.95;;;3.50;99.90;;;;;;1962788;72;21064;-84
2020/12/10 12:10:39;;;;;;;13.55;7.28;;;3.40;99.90;;;;;;1964102;72;21061;-82
2020/12/10 12:13:07;;;;;;;11.50;5.87;;;3.50;99.90;;;;;;1962406;72;21044;-83
2020/12/10 12:15:33;;;;;;;14.70;6.42;;;3.60;99.90;;;;;;1940636;72;21092;-84
2020/12/10 12:17:59;;;;;;;14.98;6.62;;;3.50;99.90;;;;;;1955823;72;21054;-81
2020/12/10 12:20:25;;;;;;;19.55;6.78;;;3.40;99.90;;;;;;1949400;72;21059;-86
2020/12/10 12:22:51;;;;;;;11.53;6.25;;;3.40;99.90;;;;;;1938261;73;21065;-83
2020/12/10 12:25:17;;;;;;;19.17;7.40;;;3.30;99.90;;;;;;1933638;73;21062;-81
2020/12/10 12:27:43;;;;;;;14.07;7.35;;;3.30;99.90;;;;;;1930703;73;21054;-83
2020/12/10 12:30:09;;;;;;;16.62;7.12;;;3.30;99.90;;;;;;1937141;72;21071;-83
2020/12/10 12:32:35;;;;;;;12.28;6.35;;;3.30;99.90;;;;;;1935708;72;21040;-83
2020/12/10 12:35:02;;;;;;;22.42;8.05;;;3.50;99.90;;;;;;1943804;73;21070;-82
2020/12/10 12:37:28;;;;;;;13.10;7.08;;;3.70;99.90;;;;;;1936501;73;21483;-83
2020/12/10 12:39:54;;;;;;;12.98;7.83;;;3.80;99.90;;;;;;1934365;73;21464;-82